Time,TemperatureF,DewpointF,PressureIn,WindDirection,WindDirectionDegrees,WindSpeedMPH,WindSpeedGustMPH,Humidity,HourlyPrecipIn,Conditions,Clouds,dailyrainin,SoftwareType,DateUTC
2013-01-23 00:04:00,0.0,-5.2,30.75,NW,316,0.0,0.0,78,0.00,,,0.00,Wunderground v.1.15,2013-01-23 07:04:00,
2013-01-23 00:09:00,0.0,-5.2,30.75,NW,316,0.0,0.0,78,0.00,,,0.00,Wunderground v.1.15,2013-01-23 07:09:00,
2013-01-23 00:14:00,-0.2,-5.4,30.75,NW,316,0.0,0.0,78,0.00,,,0.00,Wunderground v.1.15,2013-01-23 07:14:00,
2013-01-23 00:19:00,-0.4,-5.6,30.74,NW,316,0.0,0.0,78,0.00,,,0.00,Wunderground v.1.15,2013-01-23 07:19:00,
2013-01-23 00:24:00,-0.6,-6.1,30.74,NW,316,0.0,0.0,77,0.00,,,0.00,Wunderground v.1.15,2013-01-23 07:24:00,
2013-01-23 00:29:00,-0.8,-6.3,30.74,NW,316,0.0,0.0,77,0.00,,,0.00,Wunderground v.1.15,2013-01-23 07:29:00,
2013-01-23 00:34:00,-1.0,-6.2,30.74,NW,316,0.0,0.0,78,0.00,,,0.00,Wunderground v.1.15,2013-01-23 07:34:00,
2013-01-23 00:39:00,-0.8,-6.0,30.74,NW,316,0.0,0.0,78,0.00,,,0.00,Wunderground v.1.15,2013-01-23 07:39:00,
2013-01-23 00:44:00,-1.0,-6.5,30.74,NW,316,0.0,0.0,77,0.00,,,0.00,Wunderground v.1.15,2013-01-23 07:44:00,
2013-01-23 00:49:00,-0.6,-5.8,30.74,NW,316,0.0,0.0,78,0.00,,,0.00,Wunderground v.1.15,2013-01-23 07:49:00,
2013-01-23 00:54:00,-0.8,-6.3,30.74,NW,316,0.0,0.0,77,0.00,,,0.00,Wunderground v.1.15,2013-01-23 07:54:00,
2013-01-23 00:59:00,-1.0,-6.5,30.74,NW,316,0.0,0.0,77,0.00,,,0.00,Wunderground v.1.15,2013-01-23 07:59:00,
2013-01-23 01:04:00,-1.0,-6.2,30.73,NW,316,0.0,0.0,78,0.00,,,0.00,Wunderground v.1.15,2013-01-23 08:04:00,
2013-01-23 01:09:00,-0.8,-6.0,30.73,NW,316,0.0,0.0,78,0.00,,,0.00,Wunderground v.1.15,2013-01-23 08:09:00,
2013-01-23 01:14:00,-0.8,-6.0,30.73,NW,316,0.0,0.0,78,0.00,,,0.00,Wunderground v.1.15,2013-01-23 08:14:00,
2013-01-23 01:19:00,-0.6,-5.8,30.70,NW,316,0.0,0.0,78,0.00,,,0.00,Wunderground v.1.15,2013-01-23 08:19:00,
2013-01-23 01:24:00,-0.8,-6.0,30.70,NW,316,0.0,0.0,78,0.00,,,0.00,Wunderground v.1.15,2013-01-23 08:24:00,
2013-01-23 01:29:00,-1.2,-6.7,30.70,NW,316,0.0,0.0,77,0.00,,,0.00,Wunderground v.1.15,2013-01-23 08:29:00,
2013-01-23 01:34:00,-1.2,-6.7,30.70,NW,316,0.0,0.0,77,0.00,,,0.00,Wunderground v.1.15,2013-01-23 08:34:00,
2013-01-23 01:39:00,-1.2,-6.7,30.70,NW,316,0.0,0.0,77,0.00,,,0.00,Wunderground v.1.15,2013-01-23 08:39:00,
2013-01-23 01:44:00,-1.4,-6.9,30.70,NW,316,0.0,0.0,77,0.00,,,0.00,Wunderground v.1.15,2013-01-23 08:44:00,
2013-01-23 01:49:00,-1.6,-7.1,30.72,NW,316,0.0,0.0,77,0.00,,,0.00,Wunderground v.1.15,2013-01-23 08:49:00,
2013-01-23 01:54:00,-1.6,-7.1,30.72,NW,316,0.0,0.0,77,0.00,,,0.00,Wunderground v.1.15,2013-01-23 08:54:00,
2013-01-23 01:59:00,-1.6,-7.1,30.72,NW,316,0.0,0.0,77,0.00,,,0.00,Wunderground v.1.15,2013-01-23 08:59:00,
2013-01-23 02:04:00,-1.6,-7.1,30.73,NW,316,0.0,0.0,77,0.00,,,0.00,Wunderground v.1.15,2013-01-23 09:04:00,
2013-01-23 02:09:00,-1.4,-6.6,30.73,NW,316,0.0,0.0,78,0.00,,,0.00,Wunderground v.1.15,2013-01-23 09:09:00,
2013-01-23 02:14:00,-1.0,-6.2,30.73,NW,316,0.0,0.0,78,0.00,,,0.00,Wunderground v.1.15,2013-01-23 09:14:00,
2013-01-23 02:19:00,-1.0,-6.2,30.73,NW,316,0.0,0.0,78,0.00,,,0.00,Wunderground v.1.15,2013-01-23 09:19:00,
2013-01-23 02:24:00,-1.2,-6.7,30.73,NW,316,0.0,0.0,77,0.00,,,0.00,Wunderground v.1.15,2013-01-23 09:24:00,
2013-01-23 02:29:00,-1.4,-6.9,30.73,NW,316,0.0,0.0,77,0.00,,,0.00,Wunderground v.1.15,2013-01-23 09:29:00,
2013-01-23 02:34:00,-1.2,-6.4,30.74,NW,316,0.0,0.0,78,0.00,,,0.00,Wunderground v.1.15,2013-01-23 09:34:00,
2013-01-23 02:39:00,-1.2,-6.7,30.74,NW,316,0.0,0.0,77,0.00,,,0.00,Wunderground v.1.15,2013-01-23 09:39:00,
2013-01-23 02:44:00,-0.8,-6.0,30.74,NW,316,0.0,0.0,78,0.00,,,0.00,Wunderground v.1.15,2013-01-23 09:44:00,
2013-01-23 02:49:00,-0.2,-5.4,30.73,NW,316,0.0,0.0,78,0.00,,,0.00,Wunderground v.1.15,2013-01-23 09:49:00,
2013-01-23 02:54:00,0.1,-5.1,30.73,NW,316,0.0,0.0,78,0.00,,,0.00,Wunderground v.1.15,2013-01-23 09:54:00,
2013-01-23 02:59:00,0.5,-4.5,30.73,NW,316,0.0,0.0,79,0.00,,,0.00,Wunderground v.1.15,2013-01-23 09:59:00,
2013-01-23 03:04:00,0.1,-5.1,30.72,NW,316,0.0,0.0,78,0.00,,,0.00,Wunderground v.1.15,2013-01-23 10:04:00,
2013-01-23 03:09:00,0.1,-5.1,30.72,NW,316,0.0,0.0,78,0.00,,,0.00,Wunderground v.1.15,2013-01-23 10:09:00,
2013-01-23 03:14:00,0.0,-5.2,30.72,NW,316,0.0,0.0,78,0.00,,,0.00,Wunderground v.1.15,2013-01-23 10:14:00,
2013-01-23 03:19:00,0.1,-4.9,30.72,NW,316,0.0,0.0,79,0.00,,,0.00,Wunderground v.1.15,2013-01-23 10:19:00,
2013-01-23 03:24:00,0.5,-4.5,30.72,NW,316,0.0,0.0,79,0.00,,,0.00,Wunderground v.1.15,2013-01-23 10:24:00,
2013-01-23 03:30:00,0.1,-5.1,30.72,NW,316,0.0,0.0,78,0.00,,,0.00,Wunderground v.1.15,2013-01-23 10:30:00,
2013-01-23 03:35:00,-0.4,-5.9,30.72,NW,316,0.0,0.0,77,0.00,,,0.00,Wunderground v.1.15,2013-01-23 10:35:00,
2013-01-23 03:40:00,-0.6,-5.8,30.72,NW,316,0.0,0.0,78,0.00,,,0.00,Wunderground v.1.15,2013-01-23 10:40:00,
2013-01-23 03:45:00,-0.8,-6.3,30.72,NW,316,0.0,0.0,77,0.00,,,0.00,Wunderground v.1.15,2013-01-23 10:45:00,
2013-01-23 03:50:00,-1.2,-6.7,30.71,NW,316,0.0,0.0,77,0.00,,,0.00,Wunderground v.1.15,2013-01-23 10:50:00,
2013-01-23 03:55:00,-1.2,-6.7,30.71,NW,316,0.0,0.0,77,0.00,,,0.00,Wunderground v.1.15,2013-01-23 10:55:00,
2013-01-23 04:00:00,-1.4,-6.6,30.71,NW,316,0.0,0.0,78,0.00,,,0.00,Wunderground v.1.15,2013-01-23 11:00:00,
2013-01-23 04:05:00,-1.4,-6.9,30.72,NW,316,0.0,0.0,77,0.00,,,0.00,Wunderground v.1.15,2013-01-23 11:05:00,
2013-01-23 04:10:00,-1.4,-6.6,30.72,NW,316,0.0,0.0,78,0.00,,,0.00,Wunderground v.1.15,2013-01-23 11:10:00,
2013-01-23 04:15:00,-1.2,-6.4,30.72,NW,316,0.0,0.0,78,0.00,,,0.00,Wunderground v.1.15,2013-01-23 11:15:00,
2013-01-23 04:20:00,-1.4,-6.9,30.76,NW,316,0.0,0.0,77,0.00,,,0.00,Wunderground v.1.15,2013-01-23 11:20:00,
2013-01-23 04:25:00,-2.0,-7.7,30.76,NW,316,0.0,0.0,76,0.00,,,0.00,Wunderground v.1.15,2013-01-23 11:25:00,
2013-01-23 04:30:00,-2.2,-7.6,30.76,NW,316,0.0,0.0,77,0.00,,,0.00,Wunderground v.1.15,2013-01-23 11:30:00,
2013-01-23 04:35:00,-2.4,-7.8,30.77,NW,316,0.0,0.0,77,0.00,,,0.00,Wunderground v.1.15,2013-01-23 11:35:00,
2013-01-23 04:40:00,-2.4,-7.8,30.77,NW,316,0.0,0.0,77,0.00,,,0.00,Wunderground v.1.15,2013-01-23 11:40:00,
2013-01-23 04:45:00,-2.4,-7.8,30.77,NW,316,0.0,0.0,77,0.00,,,0.00,Wunderground v.1.15,2013-01-23 11:45:00,
2013-01-23 04:50:00,-2.4,-7.8,30.78,NW,316,0.0,0.0,77,0.00,,,0.00,Wunderground v.1.15,2013-01-23 11:50:00,
2013-01-23 04:55:00,-2.6,-8.3,30.78,NW,316,0.0,0.0,76,0.00,,,0.00,Wunderground v.1.15,2013-01-23 11:55:00,
2013-01-23 05:00:00,-2.8,-8.5,30.78,NW,316,0.0,0.0,76,0.00,,,0.00,Wunderground v.1.15,2013-01-23 12:00:00,
2013-01-23 05:05:00,-3.1,-8.8,30.78,NW,316,0.0,0.0,76,0.00,,,0.00,Wunderground v.1.15,2013-01-23 12:05:00,
2013-01-23 05:10:00,-3.1,-8.8,30.78,NW,316,0.0,0.0,76,0.00,,,0.00,Wunderground v.1.15,2013-01-23 12:10:00,
2013-01-23 05:15:00,-3.1,-8.8,30.78,NW,316,0.0,0.0,76,0.00,,,0.00,Wunderground v.1.15,2013-01-23 12:15:00,
2013-01-23 05:20:00,-3.3,-9.0,30.84,NW,316,0.0,0.0,76,0.00,,,0.00,Wunderground v.1.15,2013-01-23 12:20:00,
2013-01-23 05:25:00,-3.5,-9.2,30.84,NW,316,0.0,0.0,76,0.00,,,0.00,Wunderground v.1.15,2013-01-23 12:25:00,
2013-01-23 05:30:00,-3.3,-9.0,30.84,NW,316,0.0,0.0,76,0.00,,,0.00,Wunderground v.1.15,2013-01-23 12:30:00,
2013-01-23 05:35:00,-3.3,-9.0,30.83,NW,316,0.0,0.0,76,0.00,,,0.00,Wunderground v.1.15,2013-01-23 12:35:00,
2013-01-23 05:40:00,-3.3,-8.7,30.83,NW,316,0.0,0.0,77,0.00,,,0.00,Wunderground v.1.15,2013-01-23 12:40:00,
2013-01-23 05:45:00,-3.1,-8.5,30.83,NW,316,0.0,0.0,77,0.00,,,0.00,Wunderground v.1.15,2013-01-23 12:45:00,
2013-01-23 05:50:00,-2.8,-8.5,30.84,NW,316,0.0,0.0,76,0.00,,,0.00,Wunderground v.1.15,2013-01-23 12:50:00,
2013-01-23 05:55:00,-2.8,-8.2,30.84,NW,316,0.0,0.0,77,0.00,,,0.00,Wunderground v.1.15,2013-01-23 12:55:00,
2013-01-23 06:00:00,-2.6,-8.3,30.84,NW,316,0.0,0.0,76,0.00,,,0.00,Wunderground v.1.15,2013-01-23 13:00:00,
2013-01-23 06:05:00,-2.6,-8.0,30.84,NW,316,0.0,0.0,77,0.00,,,0.00,Wunderground v.1.15,2013-01-23 13:05:00,
2013-01-23 06:10:00,-2.4,-7.8,30.84,NW,311,1.0,2.0,77,0.00,,,0.00,Wunderground v.1.15,2013-01-23 13:10:00,
2013-01-23 06:15:00,-1.6,-6.8,30.85,WNW,301,0.0,3.0,78,0.00,,,0.00,Wunderground v.1.15,2013-01-23 13:15:00,
2013-01-23 06:20:00,-0.4,-5.4,30.85,WNW,301,0.0,0.0,79,0.00,,,0.00,Wunderground v.1.15,2013-01-23 13:20:00,
2013-01-23 06:25:00,-0.2,-5.4,30.85,WNW,301,0.0,0.0,78,0.00,,,0.00,Wunderground v.1.15,2013-01-23 13:25:00,
2013-01-23 06:30:00,-0.2,-5.4,30.85,WNW,301,0.0,0.0,78,0.00,,,0.00,Wunderground v.1.15,2013-01-23 13:30:00,
2013-01-23 06:35:00,-0.4,-5.6,30.85,WNW,301,0.0,0.0,78,0.00,,,0.00,Wunderground v.1.15,2013-01-23 13:35:00,
2013-01-23 06:40:00,-0.6,-5.8,30.85,WNW,301,0.0,0.0,78,0.00,,,0.00,Wunderground v.1.15,2013-01-23 13:40:00,
2013-01-23 06:45:00,-0.4,-5.6,30.85,NE,37,2.0,6.0,78,0.00,,,0.00,Wunderground v.1.15,2013-01-23 13:45:00,
2013-01-23 06:50:00,0.3,-4.7,30.85,NE,37,0.0,1.0,79,0.00,,,0.00,Wunderground v.1.15,2013-01-23 13:50:00,
2013-01-23 06:55:00,0.3,-4.9,30.85,NE,37,0.0,1.0,78,0.00,,,0.00,Wunderground v.1.15,2013-01-23 13:55:00,
2013-01-23 07:00:00,0.0,-5.2,30.85,NE,37,0.0,0.0,78,0.00,,,0.00,Wunderground v.1.15,2013-01-23 14:00:00,
2013-01-23 07:05:00,-0.4,-5.6,30.85,NE,37,0.0,0.0,78,0.00,,,0.00,Wunderground v.1.15,2013-01-23 14:05:00,
2013-01-23 07:10:00,-0.6,-5.8,30.85,NE,37,0.0,0.0,78,0.00,,,0.00,Wunderground v.1.15,2013-01-23 14:10:00,
2013-01-23 07:15:00,-0.6,-6.1,30.87,NE,37,0.0,0.0,77,0.00,,,0.00,Wunderground v.1.15,2013-01-23 14:15:00,
2013-01-23 07:20:00,-1.2,-6.7,30.87,NE,37,0.0,0.0,77,0.00,,,0.00,Wunderground v.1.15,2013-01-23 14:20:00,
2013-01-23 07:25:00,-1.4,-6.9,30.87,NE,37,0.0,0.0,77,0.00,,,0.00,Wunderground v.1.15,2013-01-23 14:25:00,
2013-01-23 07:30:00,-1.2,-6.4,30.87,NE,37,0.0,0.0,78,0.00,,,0.00,Wunderground v.1.15,2013-01-23 14:30:00,
2013-01-23 07:35:00,-1.2,-6.7,30.87,NE,37,0.0,0.0,77,0.00,,,0.00,Wunderground v.1.15,2013-01-23 14:35:00,
2013-01-23 07:40:00,-1.6,-7.1,30.87,NE,37,0.0,0.0,77,0.00,,,0.00,Wunderground v.1.15,2013-01-23 14:40:00,
2013-01-23 07:45:00,-1.6,-7.1,30.87,NE,37,0.0,0.0,77,0.00,,,0.00,Wunderground v.1.15,2013-01-23 14:45:00,
2013-01-23 07:50:00,-1.4,-6.9,30.87,NE,37,0.0,0.0,77,0.00,,,0.00,Wunderground v.1.15,2013-01-23 14:50:00,
2013-01-23 07:55:00,-1.0,-6.2,30.87,NE,37,0.0,0.0,78,0.00,,,0.00,Wunderground v.1.15,2013-01-23 14:55:00,
2013-01-23 08:00:00,0.0,-5.2,30.86,NE,37,0.0,0.0,78,0.00,,,0.00,Wunderground v.1.15,2013-01-23 15:00:00,
2013-01-23 08:05:00,0.5,-4.7,30.86,NE,37,0.0,0.0,78,0.00,,,0.00,Wunderground v.1.15,2013-01-23 15:05:00,
2013-01-23 08:10:00,1.5,-3.8,30.86,NE,37,0.0,0.0,78,0.00,,,0.00,Wunderground v.1.15,2013-01-23 15:10:00,
2013-01-23 08:15:00,2.2,-2.8,30.88,NE,37,0.0,0.0,79,0.00,,,0.00,Wunderground v.1.15,2013-01-23 15:15:00,
2013-01-23 08:20:00,2.8,-2.2,30.88,NE,55,0.0,2.0,79,0.00,,,0.00,Wunderground v.1.15,2013-01-23 15:20:00,
2013-01-23 08:25:00,4.3,-0.2,30.88,ENE,64,1.0,3.0,81,0.00,,,0.00,Wunderground v.1.15,2013-01-23 15:25:00,
2013-01-23 08:30:00,5.4,0.8,30.85,ENE,65,0.0,1.0,81,0.00,,,0.00,Wunderground v.1.15,2013-01-23 15:30:00,
2013-01-23 08:35:00,5.6,0.8,30.85,ENE,65,0.0,1.0,80,0.00,,,0.00,Wunderground v.1.15,2013-01-23 15:35:00,
2013-01-23 08:40:00,5.8,1.0,30.85,ENE,65,0.0,0.0,80,0.00,,,0.00,Wunderground v.1.15,2013-01-23 15:40:00,
2013-01-23 08:45:00,6.5,1.9,30.85,ENE,65,0.0,0.0,81,0.00,,,0.00,Wunderground v.1.15,2013-01-23 15:45:00,
2013-01-23 08:50:00,7.4,3.1,30.85,ENE,65,0.0,0.0,82,0.00,,,0.00,Wunderground v.1.15,2013-01-23 15:50:00,
2013-01-23 08:55:00,8.3,3.7,30.85,ENE,65,0.0,2.0,81,0.00,,,0.00,Wunderground v.1.15,2013-01-23 15:55:00,
2013-01-23 09:00:00,8.6,4.0,30.83,ENE,65,0.0,0.0,81,0.00,,,0.00,Wunderground v.1.15,2013-01-23 16:00:00,
2013-01-23 09:05:00,8.8,4.2,30.83,ENE,65,0.0,0.0,81,0.00,,,0.00,Wunderground v.1.15,2013-01-23 16:05:00,
2013-01-23 09:10:00,9.2,4.6,30.83,ENE,65,0.0,0.0,81,0.00,,,0.00,Wunderground v.1.15,2013-01-23 16:10:00,
2013-01-23 09:15:00,9.5,4.8,30.83,ENE,65,0.0,0.0,81,0.00,,,0.00,Wunderground v.1.15,2013-01-23 16:15:00,
2013-01-23 09:20:00,9.7,4.8,30.83,ENE,65,0.0,0.0,80,0.00,,,0.00,Wunderground v.1.15,2013-01-23 16:20:00,
2013-01-23 09:25:00,10.2,5.5,30.83,ENE,65,1.0,3.0,81,0.00,,,0.00,Wunderground v.1.15,2013-01-23 16:25:00,
2013-01-23 09:30:00,10.2,5.3,30.83,ENE,65,0.0,1.0,80,0.00,,,0.00,Wunderground v.1.15,2013-01-23 16:30:00,
2013-01-23 09:35:00,10.2,5.0,30.83,ENE,57,2.0,3.0,79,0.00,,,0.00,Wunderground v.1.15,2013-01-23 16:35:00,
2013-01-23 09:41:00,10.2,5.0,30.83,ENE,57,1.0,2.0,79,0.00,,,0.00,Wunderground v.1.15,2013-01-23 16:41:00,
2013-01-23 09:46:00,10.5,5.3,30.83,ENE,57,2.0,2.0,79,0.00,,,0.00,Wunderground v.1.15,2013-01-23 16:46:00,
2013-01-23 09:51:00,10.7,5.2,30.83,NE,56,2.0,3.0,78,0.00,,,0.00,Wunderground v.1.15,2013-01-23 16:51:00,
2013-01-23 09:56:00,11.1,5.6,30.83,NE,56,0.0,3.0,78,0.00,,,0.00,Wunderground v.1.15,2013-01-23 16:56:00,
2013-01-23 10:01:00,11.4,5.9,30.84,NE,55,1.0,3.0,78,0.00,,,0.00,Wunderground v.1.15,2013-01-23 17:01:00,
2013-01-23 10:06:00,11.9,6.4,30.84,NE,54,1.0,3.0,78,0.00,,,0.00,Wunderground v.1.15,2013-01-23 17:06:00,
2013-01-23 10:11:00,12.8,7.2,30.84,NE,53,2.0,3.0,78,0.00,,,0.00,Wunderground v.1.15,2013-01-23 17:11:00,
2013-01-23 10:16:00,13.5,7.6,30.83,NE,53,2.0,4.0,77,0.00,,,0.00,Wunderground v.1.15,2013-01-23 17:16:00,
2013-01-23 10:21:00,13.8,7.6,30.83,NE,53,3.0,3.0,76,0.00,,,0.00,Wunderground v.1.15,2013-01-23 17:21:00,
2013-01-23 10:26:00,14.1,7.9,30.83,NE,53,2.0,3.0,76,0.00,,,0.00,Wunderground v.1.15,2013-01-23 17:26:00,
2013-01-23 10:31:00,14.8,8.6,30.82,NE,53,3.0,3.0,76,0.00,,,0.00,Wunderground v.1.15,2013-01-23 17:31:00,
2013-01-23 10:36:00,15.2,8.7,30.82,NE,52,3.0,5.0,75,0.00,,,0.00,Wunderground v.1.15,2013-01-23 17:36:00,
2013-01-23 10:41:00,15.6,8.8,30.82,NNE,32,4.0,5.0,74,0.00,,,0.00,Wunderground v.1.15,2013-01-23 17:41:00,
2013-01-23 10:46:00,16.1,9.3,30.81,North,5,2.0,6.0,74,0.00,,,0.00,Wunderground v.1.15,2013-01-23 17:46:00,
2013-01-23 10:51:00,16.5,9.7,30.81,North,5,2.0,3.0,74,0.00,,,0.00,Wunderground v.1.15,2013-01-23 17:51:00,
2013-01-23 10:56:00,17.7,10.8,30.81,North,355,2.0,3.0,74,0.00,,,0.00,Wunderground v.1.15,2013-01-23 17:56:00,
2013-01-23 11:01:00,18.9,11.0,30.80,NNW,343,0.0,4.0,71,0.00,,,0.00,Wunderground v.1.15,2013-01-23 18:01:00,
2013-01-23 11:06:00,19.5,11.0,30.80,NNW,343,0.0,4.0,69,0.00,,,0.00,Wunderground v.1.15,2013-01-23 18:06:00,
2013-01-23 11:11:00,19.7,10.8,30.80,NNW,343,2.0,4.0,68,0.00,,,0.00,Wunderground v.1.15,2013-01-23 18:11:00,
2013-01-23 11:16:00,19.9,10.7,30.80,NNW,343,1.0,4.0,67,0.00,,,0.00,Wunderground v.1.15,2013-01-23 18:16:00,
2013-01-23 11:21:00,20.3,11.1,30.80,NNW,343,2.0,4.0,67,0.00,,,0.00,Wunderground v.1.15,2013-01-23 18:21:00,
2013-01-23 11:26:00,20.5,10.9,30.80,NNW,344,2.0,6.0,66,0.00,,,0.00,Wunderground v.1.15,2013-01-23 18:26:00,
2013-01-23 11:31:00,20.8,10.9,30.80,NNW,344,2.0,4.0,65,0.00,,,0.00,Wunderground v.1.15,2013-01-23 18:31:00,
2013-01-23 11:36:00,21.1,10.8,30.80,NNW,344,2.0,4.0,64,0.00,,,0.00,Wunderground v.1.15,2013-01-23 18:36:00,
2013-01-23 11:41:00,21.6,10.9,30.80,NNW,344,2.0,3.0,63,0.00,,,0.00,Wunderground v.1.15,2013-01-23 18:41:00,
2013-01-23 11:46:00,21.9,11.2,30.77,NNW,344,2.0,4.0,63,0.00,,,0.00,Wunderground v.1.15,2013-01-23 18:46:00,
2013-01-23 11:51:00,22.4,11.3,30.77,NNW,344,1.0,2.0,62,0.00,,,0.00,Wunderground v.1.15,2013-01-23 18:51:00,
2013-01-23 11:56:00,22.5,11.1,30.77,NNW,344,1.0,2.0,61,0.00,,,0.00,Wunderground v.1.15,2013-01-23 18:56:00,
2013-01-23 12:01:00,22.9,11.1,30.77,NNW,344,2.0,3.0,60,0.00,,,0.00,Wunderground v.1.15,2013-01-23 19:01:00,
2013-01-23 12:06:00,23.0,11.2,30.77,NNW,344,1.0,3.0,60,0.00,,,0.00,Wunderground v.1.15,2013-01-23 19:06:00,
2013-01-23 12:11:00,23.2,11.0,30.77,NNW,344,3.0,4.0,59,0.00,,,0.00,Wunderground v.1.15,2013-01-23 19:11:00,
2013-01-23 12:16:00,23.0,10.8,30.75,NNW,344,1.0,4.0,59,0.00,,,0.00,Wunderground v.1.15,2013-01-23 19:16:00,
2013-01-23 12:21:00,23.2,11.0,30.75,NNW,344,1.0,2.0,59,0.00,,,0.00,Wunderground v.1.15,2013-01-23 19:21:00,
2013-01-23 12:26:00,23.6,11.7,30.75,NNW,344,0.0,2.0,60,0.00,,,0.00,Wunderground v.1.15,2013-01-23 19:26:00,
2013-01-23 12:31:00,24.4,11.7,30.74,NNW,344,0.0,1.0,58,0.00,,,0.00,Wunderground v.1.15,2013-01-23 19:31:00,
2013-01-23 12:36:00,24.7,11.6,30.74,NNW,344,1.0,3.0,57,0.00,,,0.00,Wunderground v.1.15,2013-01-23 19:36:00,
2013-01-23 12:41:00,24.7,11.6,30.74,NNW,344,3.0,5.0,57,0.00,,,0.00,Wunderground v.1.15,2013-01-23 19:41:00,
2013-01-23 12:46:00,24.4,11.3,30.73,NNW,344,3.0,5.0,57,0.00,,,0.00,Wunderground v.1.15,2013-01-23 19:46:00,
2013-01-23 12:51:00,24.4,11.3,30.73,NNW,344,3.0,4.0,57,0.00,,,0.00,Wunderground v.1.15,2013-01-23 19:51:00,
2013-01-23 12:56:00,24.4,11.3,30.73,NNW,344,4.0,4.0,57,0.00,,,0.00,Wunderground v.1.15,2013-01-23 19:56:00,
2013-01-23 13:01:00,24.5,11.4,30.72,NNW,344,1.0,3.0,57,0.00,,,0.00,Wunderground v.1.15,2013-01-23 20:01:00,
2013-01-23 13:06:00,25.3,11.8,30.72,NNW,344,2.0,4.0,56,0.00,,,0.00,Wunderground v.1.15,2013-01-23 20:06:00,
2013-01-23 13:11:00,25.7,12.2,30.72,NNW,344,4.0,5.0,56,0.00,,,0.00,Wunderground v.1.15,2013-01-23 20:11:00,
2013-01-23 13:16:00,25.8,12.2,30.71,NNW,329,4.0,5.0,56,0.00,,,0.00,Wunderground v.1.15,2013-01-23 20:16:00,
2013-01-23 13:21:00,26.3,11.9,30.71,NNW,327,1.0,4.0,54,0.00,,,0.00,Wunderground v.1.15,2013-01-23 20:21:00,
2013-01-23 13:26:00,26.6,12.2,30.71,NNW,327,3.0,4.0,54,0.00,,,0.00,Wunderground v.1.15,2013-01-23 20:26:00,
2013-01-23 13:31:00,26.6,11.7,30.71,NNW,328,0.0,5.0,53,0.00,,,0.00,Wunderground v.1.15,2013-01-23 20:31:00,
2013-01-23 13:36:00,26.3,11.9,30.71,NNW,336,1.0,7.0,54,0.00,,,0.00,Wunderground v.1.15,2013-01-23 20:36:00,
2013-01-23 13:41:00,26.6,12.6,30.71,NNW,333,2.0,3.0,55,0.00,,,0.00,Wunderground v.1.15,2013-01-23 20:41:00,
2013-01-23 13:46:00,26.6,12.2,30.70,North,350,4.0,6.0,54,0.00,,,0.00,Wunderground v.1.15,2013-01-23 20:46:00,
2013-01-23 13:51:00,26.0,11.6,30.70,North,349,3.0,5.0,54,0.00,,,0.00,Wunderground v.1.15,2013-01-23 20:51:00,
2013-01-23 13:56:00,26.3,12.3,30.70,NNW,344,2.0,5.0,55,0.00,,,0.00,Wunderground v.1.15,2013-01-23 20:56:00,
2013-01-23 14:01:00,27.2,12.3,30.70,NW,317,2.0,3.0,53,0.00,,,0.00,Wunderground v.1.15,2013-01-23 21:01:00,
2013-01-23 14:06:00,28.1,12.3,30.70,NW,316,2.0,5.0,51,0.00,,,0.00,Wunderground v.1.15,2013-01-23 21:06:00,
2013-01-23 14:11:00,28.7,12.4,30.70,NW,317,0.0,4.0,50,0.00,,,0.00,Wunderground v.1.15,2013-01-23 21:11:00,
2013-01-23 14:16:00,28.7,11.9,30.68,NW,317,2.0,4.0,49,0.00,,,0.00,Wunderground v.1.15,2013-01-23 21:16:00,
2013-01-23 14:21:00,27.8,12.0,30.68,NW,317,0.0,2.0,51,0.00,,,0.00,Wunderground v.1.15,2013-01-23 21:21:00,
2013-01-23 14:26:00,27.3,12.4,30.68,NW,317,0.0,3.0,53,0.00,,,0.00,Wunderground v.1.15,2013-01-23 21:26:00,
2013-01-23 14:31:00,27.5,12.2,30.67,NW,317,0.0,1.0,52,0.00,,,0.00,Wunderground v.1.15,2013-01-23 21:31:00,
2013-01-23 14:36:00,27.8,12.9,30.67,NW,317,0.0,1.0,53,0.00,,,0.00,Wunderground v.1.15,2013-01-23 21:36:00,
2013-01-23 14:41:00,28.4,12.6,30.67,NW,317,1.0,2.0,51,0.00,,,0.00,Wunderground v.1.15,2013-01-23 21:41:00,
2013-01-23 14:46:00,28.1,12.7,30.67,NW,317,2.0,2.0,52,0.00,,,0.00,Wunderground v.1.15,2013-01-23 21:46:00,
2013-01-23 14:51:00,28.4,13.0,30.67,NW,317,0.0,2.0,52,0.00,,,0.00,Wunderground v.1.15,2013-01-23 21:51:00,
2013-01-23 14:56:00,28.4,13.0,30.67,NW,317,2.0,3.0,52,0.00,,,0.00,Wunderground v.1.15,2013-01-23 21:56:00,
2013-01-23 15:01:00,28.5,13.1,30.67,NW,317,0.0,2.0,52,0.00,,,0.00,Wunderground v.1.15,2013-01-23 22:01:00,
2013-01-23 15:06:00,28.7,12.8,30.67,NW,317,2.0,3.0,51,0.00,,,0.00,Wunderground v.1.15,2013-01-23 22:06:00,
2013-01-23 15:11:00,28.7,12.8,30.67,NW,317,0.0,2.0,51,0.00,,,0.00,Wunderground v.1.15,2013-01-23 22:11:00,
2013-01-23 15:16:00,28.5,13.1,30.67,NW,317,1.0,3.0,52,0.00,,,0.00,Wunderground v.1.15,2013-01-23 22:16:00,
2013-01-23 15:21:00,28.2,13.2,30.67,NW,317,2.0,2.0,53,0.00,,,0.00,Wunderground v.1.15,2013-01-23 22:21:00,
2013-01-23 15:27:00,28.1,13.1,30.67,NW,317,0.0,2.0,53,0.00,,,0.00,Wunderground v.1.15,2013-01-23 22:27:00,
2013-01-23 15:32:00,27.9,13.0,30.67,NW,317,0.0,1.0,53,0.00,,,0.00,Wunderground v.1.15,2013-01-23 22:32:00,
2013-01-23 15:36:00,27.8,12.4,30.67,NW,317,0.0,1.0,52,0.00,,,0.00,Wunderground v.1.15,2013-01-23 22:36:00,
2013-01-23 15:42:00,27.9,12.5,30.67,NW,317,0.0,0.0,52,0.00,,,0.00,Wunderground v.1.15,2013-01-23 22:42:00,
2013-01-23 15:47:00,28.1,12.7,30.67,NW,317,0.0,1.0,52,0.00,,,0.00,Wunderground v.1.15,2013-01-23 22:47:00,
2013-01-23 15:52:00,27.6,12.7,30.67,NW,317,1.0,2.0,53,0.00,,,0.00,Wunderground v.1.15,2013-01-23 22:52:00,
2013-01-23 15:56:00,27.2,12.7,30.67,NW,317,1.0,3.0,54,0.00,,,0.00,Wunderground v.1.15,2013-01-23 22:56:00,
2013-01-23 16:02:00,26.9,12.5,30.68,NW,317,2.0,2.0,54,0.00,,,0.00,Wunderground v.1.15,2013-01-23 23:02:00,
2013-01-23 16:07:00,26.4,12.4,30.68,NW,317,1.0,2.0,55,0.00,,,0.00,Wunderground v.1.15,2013-01-23 23:07:00,
2013-01-23 16:12:00,26.3,12.7,30.68,NW,317,0.0,1.0,56,0.00,,,0.00,Wunderground v.1.15,2013-01-23 23:12:00,
2013-01-23 16:17:00,26.1,12.5,30.71,NW,317,0.0,1.0,56,0.00,,,0.00,Wunderground v.1.15,2013-01-23 23:17:00,
2013-01-23 16:22:00,26.0,12.4,30.71,NW,317,0.0,2.0,56,0.00,,,0.00,Wunderground v.1.15,2013-01-23 23:22:00,
2013-01-23 16:27:00,25.7,12.6,30.71,NW,317,1.0,2.0,57,0.00,,,0.00,Wunderground v.1.15,2013-01-23 23:27:00,
2013-01-23 16:32:00,25.4,12.3,30.71,NW,317,0.0,1.0,57,0.00,,,0.00,Wunderground v.1.15,2013-01-23 23:32:00,
2013-01-23 16:37:00,25.1,12.4,30.71,NW,317,0.0,1.0,58,0.00,,,0.00,Wunderground v.1.15,2013-01-23 23:37:00,
2013-01-23 16:42:00,25.0,12.3,30.71,NW,317,0.0,0.0,58,0.00,,,0.00,Wunderground v.1.15,2013-01-23 23:42:00,
2013-01-23 16:47:00,25.0,12.3,30.71,NW,317,0.0,0.0,58,0.00,,,0.00,Wunderground v.1.15,2013-01-23 23:47:00,
2013-01-23 16:52:00,24.8,12.1,30.71,NW,317,0.0,0.0,58,0.00,,,0.00,Wunderground v.1.15,2013-01-23 23:52:00,
2013-01-23 16:57:00,24.7,12.4,30.71,NW,317,0.0,0.0,59,0.00,,,0.00,Wunderground v.1.15,2013-01-23 23:57:00,
2013-01-23 17:02:00,24.5,12.2,30.71,NW,317,0.0,0.0,59,0.00,,,0.00,Wunderground v.1.15,2013-01-24 00:02:00,
2013-01-23 17:07:00,24.4,12.1,30.71,NW,317,0.0,0.0,59,0.00,,,0.00,Wunderground v.1.15,2013-01-24 00:07:00,
2013-01-23 17:12:00,24.2,12.3,30.71,NW,317,0.0,0.0,60,0.00,,,0.00,Wunderground v.1.15,2013-01-24 00:12:00,
2013-01-23 17:17:00,23.9,12.0,30.71,NW,317,0.0,0.0,60,0.00,,,0.00,Wunderground v.1.15,2013-01-24 00:17:00,
2013-01-23 17:22:00,23.6,12.1,30.71,NW,317,0.0,0.0,61,0.00,,,0.00,Wunderground v.1.15,2013-01-24 00:22:00,
2013-01-23 17:27:00,23.3,11.8,30.71,NW,317,0.0,0.0,61,0.00,,,0.00,Wunderground v.1.15,2013-01-24 00:27:00,
2013-01-23 17:32:00,22.7,11.3,30.70,NW,317,0.0,0.0,61,0.00,,,0.00,Wunderground v.1.15,2013-01-24 00:32:00,
2013-01-23 17:37:00,22.2,11.1,30.70,NW,317,0.0,0.0,62,0.00,,,0.00,Wunderground v.1.15,2013-01-24 00:37:00,
2013-01-23 17:42:00,21.6,10.6,30.70,NW,317,0.0,0.0,62,0.00,,,0.00,Wunderground v.1.15,2013-01-24 00:42:00,
2013-01-23 17:47:00,21.0,10.4,30.72,NW,317,0.0,0.0,63,0.00,,,0.00,Wunderground v.1.15,2013-01-24 00:47:00,
2013-01-23 17:52:00,20.6,10.3,30.72,NW,317,0.0,0.0,64,0.00,,,0.00,Wunderground v.1.15,2013-01-24 00:52:00,
2013-01-23 17:57:00,20.3,10.4,30.72,NW,317,0.0,0.0,65,0.00,,,0.00,Wunderground v.1.15,2013-01-24 00:57:00,
2013-01-23 18:02:00,20.2,10.3,30.72,NW,317,0.0,0.0,65,0.00,,,0.00,Wunderground v.1.15,2013-01-24 01:02:00,
2013-01-23 18:07:00,20.0,10.1,30.72,NW,317,0.0,1.0,65,0.00,,,0.00,Wunderground v.1.15,2013-01-24 01:07:00,
2013-01-23 18:12:00,19.9,10.4,30.72,NW,317,0.0,2.0,66,0.00,,,0.00,Wunderground v.1.15,2013-01-24 01:12:00,
2013-01-23 18:17:00,19.7,10.2,30.69,NW,317,0.0,2.0,66,0.00,,,0.00,Wunderground v.1.15,2013-01-24 01:17:00,
2013-01-23 18:22:00,19.4,10.2,30.69,NW,317,0.0,0.0,67,0.00,,,0.00,Wunderground v.1.15,2013-01-24 01:22:00,
2013-01-23 18:27:00,18.9,9.7,30.69,NW,317,0.0,0.0,67,0.00,,,0.00,Wunderground v.1.15,2013-01-24 01:27:00,
2013-01-23 18:32:00,18.4,9.3,30.71,NW,317,0.0,0.0,67,0.00,,,0.00,Wunderground v.1.15,2013-01-24 01:32:00,
2013-01-23 18:37:00,18.1,9.3,30.71,NW,317,0.0,0.0,68,0.00,,,0.00,Wunderground v.1.15,2013-01-24 01:37:00,
2013-01-23 18:42:00,17.7,8.9,30.71,NW,317,0.0,0.0,68,0.00,,,0.00,Wunderground v.1.15,2013-01-24 01:42:00,
2013-01-23 18:47:00,17.3,8.5,30.72,NW,317,0.0,0.0,68,0.00,,,0.00,Wunderground v.1.15,2013-01-24 01:47:00,
2013-01-23 18:52:00,17.0,8.6,30.72,NW,317,0.0,0.0,69,0.00,,,0.00,Wunderground v.1.15,2013-01-24 01:52:00,
2013-01-23 18:57:00,16.7,8.3,30.72,NW,317,0.0,0.0,69,0.00,,,0.00,Wunderground v.1.15,2013-01-24 01:57:00,
2013-01-23 19:02:00,16.7,8.6,30.74,NW,317,0.0,0.0,70,0.00,,,0.00,Wunderground v.1.15,2013-01-24 02:02:00,
2013-01-23 19:07:00,17.3,9.8,30.74,NW,317,0.0,0.0,72,0.00,,,0.00,Wunderground v.1.15,2013-01-24 02:07:00,
2013-01-23 19:12:00,17.7,10.2,30.74,NW,317,0.0,0.0,72,0.00,,,0.00,Wunderground v.1.15,2013-01-24 02:12:00,
2013-01-23 19:17:00,17.7,9.9,30.73,NW,317,0.0,0.0,71,0.00,,,0.00,Wunderground v.1.15,2013-01-24 02:17:00,
2013-01-23 19:22:00,17.0,9.2,30.73,NW,317,0.0,0.0,71,0.00,,,0.00,Wunderground v.1.15,2013-01-24 02:22:00,
2013-01-23 19:27:00,16.5,8.7,30.73,NW,317,0.0,0.0,71,0.00,,,0.00,Wunderground v.1.15,2013-01-24 02:27:00,
2013-01-23 19:32:00,16.1,8.0,30.74,NW,317,0.0,0.0,70,0.00,,,0.00,Wunderground v.1.15,2013-01-24 02:32:00,
2013-01-23 19:37:00,15.6,7.9,30.74,NW,317,0.0,0.0,71,0.00,,,0.00,Wunderground v.1.15,2013-01-24 02:37:00,
2013-01-23 19:42:00,14.9,7.2,30.74,NW,317,0.0,0.0,71,0.00,,,0.00,Wunderground v.1.15,2013-01-24 02:42:00,
2013-01-23 19:47:00,14.6,6.9,30.75,NW,317,0.0,0.0,71,0.00,,,0.00,Wunderground v.1.15,2013-01-24 02:47:00,
2013-01-23 19:52:00,14.1,6.7,30.75,NW,317,0.0,0.0,72,0.00,,,0.00,Wunderground v.1.15,2013-01-24 02:52:00,
2013-01-23 19:57:00,13.6,6.2,30.75,NW,317,0.0,0.0,72,0.00,,,0.00,Wunderground v.1.15,2013-01-24 02:57:00,
2013-01-23 20:02:00,13.3,6.3,30.76,NW,317,0.0,0.0,73,0.00,,,0.00,Wunderground v.1.15,2013-01-24 03:02:00,
2013-01-23 20:07:00,12.8,5.8,30.76,NW,317,0.0,0.0,73,0.00,,,0.00,Wunderground v.1.15,2013-01-24 03:07:00,
2013-01-23 20:12:00,12.4,5.4,30.76,NW,317,0.0,0.0,73,0.00,,,0.00,Wunderground v.1.15,2013-01-24 03:12:00,
2013-01-23 20:17:00,11.9,4.9,30.72,NW,317,0.0,0.0,73,0.00,,,0.00,Wunderground v.1.15,2013-01-24 03:17:00,
2013-01-23 20:22:00,11.7,5.0,30.72,NW,317,0.0,0.0,74,0.00,,,0.00,Wunderground v.1.15,2013-01-24 03:22:00,
2013-01-23 20:27:00,11.7,5.0,30.72,NW,317,0.0,0.0,74,0.00,,,0.00,Wunderground v.1.15,2013-01-24 03:27:00,
2013-01-23 20:32:00,11.7,5.3,30.71,NW,317,0.0,0.0,75,0.00,,,0.00,Wunderground v.1.15,2013-01-24 03:32:00,
2013-01-23 20:37:00,11.7,5.3,30.71,NW,317,0.0,0.0,75,0.00,,,0.00,Wunderground v.1.15,2013-01-24 03:37:00,
2013-01-23 20:42:00,12.8,6.9,30.71,NW,317,0.0,0.0,77,0.00,,,0.00,Wunderground v.1.15,2013-01-24 03:42:00,
2013-01-23 20:47:00,12.9,6.8,30.69,NW,317,0.0,0.0,76,0.00,,,0.00,Wunderground v.1.15,2013-01-24 03:47:00,
2013-01-23 20:52:00,12.4,6.3,30.69,NW,317,0.0,1.0,76,0.00,,,0.00,Wunderground v.1.15,2013-01-24 03:52:00,
2013-01-23 20:57:00,12.4,6.3,30.69,NW,317,0.0,1.0,76,0.00,,,0.00,Wunderground v.1.15,2013-01-24 03:57:00,
2013-01-23 21:02:00,13.8,8.2,30.68,NW,317,0.0,0.0,78,0.00,,,0.00,Wunderground v.1.15,2013-01-24 04:02:00,
2013-01-23 21:07:00,14.3,8.4,30.68,NW,317,0.0,0.0,77,0.00,,,0.00,Wunderground v.1.15,2013-01-24 04:07:00,
2013-01-23 21:12:00,14.3,8.4,30.68,NW,317,0.0,0.0,77,0.00,,,0.00,Wunderground v.1.15,2013-01-24 04:12:00,
2013-01-23 21:17:00,14.3,8.4,30.68,NW,317,0.0,0.0,77,0.00,,,0.00,Wunderground v.1.15,2013-01-24 04:17:00,
2013-01-23 21:22:00,14.4,8.5,30.68,NW,317,0.0,0.0,77,0.00,,,0.00,Wunderground v.1.15,2013-01-24 04:22:00,
2013-01-23 21:27:00,14.4,8.5,30.68,NW,317,0.0,0.0,77,0.00,,,0.00,Wunderground v.1.15,2013-01-24 04:27:00,
2013-01-23 21:32:00,14.3,8.4,30.68,NW,317,0.0,0.0,77,0.00,,,0.00,Wunderground v.1.15,2013-01-24 04:32:00,
2013-01-23 21:37:00,14.1,7.9,30.68,NW,317,0.0,0.0,76,0.00,,,0.00,Wunderground v.1.15,2013-01-24 04:37:00,
2013-01-23 21:42:00,14.0,8.1,30.68,NW,317,0.0,0.0,77,0.00,,,0.00,Wunderground v.1.15,2013-01-24 04:42:00,
2013-01-23 21:47:00,14.1,8.5,30.69,NW,317,0.0,0.0,78,0.00,,,0.00,Wunderground v.1.15,2013-01-24 04:47:00,
2013-01-23 21:52:00,14.0,8.1,30.69,NW,317,0.0,0.0,77,0.00,,,0.00,Wunderground v.1.15,2013-01-24 04:52:00,
2013-01-23 21:57:00,13.6,7.7,30.69,NW,317,0.0,0.0,77,0.00,,,0.00,Wunderground v.1.15,2013-01-24 04:57:00,
2013-01-23 22:00:00,13.5,7.6,30.69,NW,317,0.0,0.0,77,0.00,,,0.00,Wunderground v.1.15,2013-01-24 05:00:00,
2013-01-23 22:02:00,13.3,7.4,30.70,NW,317,0.0,0.0,77,0.00,,,0.00,Wunderground v.1.15,2013-01-24 05:02:00,
2013-01-23 22:03:00,13.3,7.4,30.70,NW,317,0.0,0.0,77,0.00,,,0.00,Wunderground v.1.15,2013-01-24 05:03:00,
2013-01-23 22:08:00,13.1,7.2,30.70,NW,317,0.0,0.0,77,0.00,,,0.00,Wunderground v.1.15,2013-01-24 05:08:00,
2013-01-23 22:13:00,12.9,7.0,30.70,NW,317,0.0,0.0,77,0.00,,,0.00,Wunderground v.1.15,2013-01-24 05:13:00,
2013-01-23 22:18:00,12.4,6.6,30.65,NW,317,0.0,0.0,77,0.00,,,0.00,Wunderground v.1.15,2013-01-24 05:18:00,
2013-01-23 22:23:00,12.3,6.5,30.65,NW,317,0.0,0.0,77,0.00,,,0.00,Wunderground v.1.15,2013-01-24 05:23:00,
2013-01-23 22:28:00,12.4,6.8,30.65,NW,317,0.0,0.0,78,0.00,,,0.00,Wunderground v.1.15,2013-01-24 05:28:00,
2013-01-23 22:33:00,12.3,6.7,30.66,NW,317,0.0,0.0,78,0.00,,,0.00,Wunderground v.1.15,2013-01-24 05:33:00,
2013-01-23 22:38:00,11.9,6.4,30.66,NW,317,0.0,0.0,78,0.00,,,0.00,Wunderground v.1.15,2013-01-24 05:38:00,
2013-01-23 22:43:00,11.1,5.3,30.66,NW,317,0.0,0.0,77,0.00,,,0.00,Wunderground v.1.15,2013-01-24 05:43:00,
2013-01-23 22:48:00,10.4,4.6,30.67,NW,317,0.0,0.0,77,0.00,,,0.00,Wunderground v.1.15,2013-01-24 05:48:00,
2013-01-23 22:53:00,10.4,4.9,30.67,NW,317,0.0,0.0,78,0.00,,,0.00,Wunderground v.1.15,2013-01-24 05:53:00,
2013-01-23 22:58:00,10.0,4.5,30.67,NW,317,0.0,0.0,78,0.00,,,0.00,Wunderground v.1.15,2013-01-24 05:58:00,
2013-01-23 23:03:00,10.2,5.0,30.68,NW,317,0.0,0.0,79,0.00,,,0.00,Wunderground v.1.15,2013-01-24 06:03:00,
2013-01-23 23:08:00,10.2,5.0,30.68,NW,317,0.0,0.0,79,0.00,,,0.00,Wunderground v.1.15,2013-01-24 06:08:00,
2013-01-23 23:13:00,10.0,4.8,30.68,NW,317,0.0,0.0,79,0.00,,,0.00,Wunderground v.1.15,2013-01-24 06:13:00,
2013-01-23 23:18:00,10.2,5.0,30.65,NW,317,0.0,0.0,79,0.00,,,0.00,Wunderground v.1.15,2013-01-24 06:18:00,
2013-01-23 23:23:00,10.7,5.7,30.65,NW,317,0.0,0.0,80,0.00,,,0.00,Wunderground v.1.15,2013-01-24 06:23:00,
2013-01-23 23:28:00,10.9,5.9,30.65,NW,317,0.0,0.0,80,0.00,,,0.00,Wunderground v.1.15,2013-01-24 06:28:00,
2013-01-23 23:33:00,11.2,6.5,30.62,NW,317,0.0,0.0,81,0.00,,,0.00,Wunderground v.1.15,2013-01-24 06:33:00,
2013-01-23 23:38:00,11.2,6.2,30.62,NW,317,0.0,0.0,80,0.00,,,0.00,Wunderground v.1.15,2013-01-24 06:38:00,
2013-01-23 23:43:00,11.1,6.1,30.62,NW,317,0.0,0.0,80,0.00,,,0.00,Wunderground v.1.15,2013-01-24 06:43:00,
2013-01-23 23:48:00,10.9,5.9,30.62,NW,317,0.0,0.0,80,0.00,,,0.00,Wunderground v.1.15,2013-01-24 06:48:00,
2013-01-23 23:53:00,10.9,5.9,30.62,NW,317,0.0,0.0,80,0.00,,,0.00,Wunderground v.1.15,2013-01-24 06:53:00,
2013-01-23 23:58:00,11.1,6.1,30.62,NW,317,0.0,0.0,80,0.00,,,0.00,Wunderground v.1.15,2013-01-24 06:58:00,